createdAt,value
2022-11-16T00:02:13.762Z,22.02
2022-11-16T00:04:40.556Z,24.27
2022-11-16T00:07:07.591Z,25.02
2022-11-16T00:09:34.326Z,23.73
2022-11-16T00:12:03.990Z,24.55
2022-11-16T00:14:33.061Z,23.05
2022-11-16T00:17:00.437Z,22.70
2022-11-16T00:19:28.035Z,23.10
2022-11-16T00:21:55.031Z,21.73
2022-11-16T00:24:23.356Z,22.27
2022-11-16T00:26:50.727Z,22.10
2022-11-16T00:29:20.167Z,24.42
2022-11-16T00:31:47.500Z,22.20
2022-11-16T00:34:14.542Z,23.10
2022-11-16T00:36:41.225Z,23.65
2022-11-16T00:39:10.176Z,23.73
2022-11-16T00:41:36.697Z,22.80
2022-11-16T00:44:03.239Z,25.33
2022-11-16T00:46:29.771Z,21.05
2022-11-16T00:48:56.337Z,21.00
2022-11-16T00:51:22.853Z,21.52
2022-11-16T00:53:49.379Z,23.17
2022-11-16T00:56:15.941Z,21.02
2022-11-16T00:58:42.454Z,22.67
2022-11-16T01:01:11.262Z,22.65
2022-11-16T01:03:39.475Z,25.00
2022-11-16T01:06:08.990Z,22.15
2022-11-16T01:08:37.239Z,23.80
2022-11-16T01:11:43.462Z,24.77
2022-11-16T01:14:10.687Z,25.80
2022-11-16T01:16:37.687Z,21.80
2022-11-16T01:19:05.316Z,23.27
2022-11-16T01:21:32.035Z,23.77
2022-11-16T01:23:58.570Z,24.75
2022-11-16T01:26:25.533Z,24.63
2022-11-16T01:28:52.476Z,26.80
2022-11-16T01:31:19.429Z,27.17
2022-11-16T01:33:46.014Z,26.63
2022-11-16T01:36:17.329Z,22.35
2022-11-16T01:38:46.017Z,27.10
2022-11-16T01:41:18.239Z,29.08
2022-11-16T01:44:02.959Z,23.77
2022-11-16T01:46:30.718Z,26.45
2022-11-16T01:49:11.963Z,22.00
2022-11-16T01:51:42.423Z,26.98
2022-11-16T01:54:11.773Z,27.92
2022-11-16T01:56:39.723Z,26.77
2022-11-16T01:59:06.688Z,29.02
2022-11-16T02:01:33.291Z,25.00
2022-11-16T02:03:59.879Z,26.48
2022-11-16T02:06:26.346Z,23.25
2022-11-16T02:09:43.130Z,24.60
2022-11-16T02:12:43.590Z,25.23
2022-11-16T02:15:25.551Z,22.48
2022-11-16T02:18:00.707Z,21.38
2022-11-16T02:20:51.526Z,24.52
2022-11-16T02:23:52.350Z,20.25
2022-11-16T02:26:39.435Z,20.40
2022-11-16T02:29:19.059Z,21.33
2022-11-16T02:31:59.434Z,22.45
2022-11-16T02:34:31.135Z,21.90
2022-11-16T02:37:01.866Z,21.30
2022-11-16T02:39:31.879Z,19.48
2022-11-16T02:42:01.715Z,18.63
2022-11-16T02:44:35.699Z,21.42
2022-11-16T02:47:08.395Z,16.23
2022-11-16T02:49:40.363Z,20.52
2022-11-16T02:52:08.929Z,19.15
2022-11-16T02:54:35.490Z,18.50
2022-11-16T02:57:04.969Z,18.65
2022-11-16T02:59:55.175Z,19.33
2022-11-16T03:02:35.446Z,20.55
2022-11-16T03:05:08.720Z,19.95
2022-11-16T03:07:45.024Z,20.00
2022-11-16T03:10:32.234Z,19.75
2022-11-16T03:13:02.300Z,16.85
2022-11-16T03:15:30.299Z,19.25
2022-11-16T03:17:59.527Z,19.80
2022-11-16T03:20:30.254Z,19.27
2022-11-16T03:23:10.363Z,20.15
2022-11-16T03:25:44.979Z,18.45
2022-11-16T03:28:29.265Z,20.77
2022-11-16T03:31:01.029Z,20.20
2022-11-16T03:33:29.854Z,20.77
2022-11-16T03:36:22.355Z,20.42
2022-11-16T03:38:50.955Z,18.60
2022-11-16T03:41:20.167Z,21.20
2022-11-16T03:43:49.335Z,18.90
2022-11-16T03:46:17.559Z,22.17
2022-11-16T03:48:44.157Z,21.80
2022-11-16T03:51:11.416Z,17.77
2022-11-16T03:53:38.034Z,20.98
2022-11-16T03:56:04.799Z,21.08
2022-11-16T03:58:31.871Z,21.45
2022-11-16T04:00:58.789Z,20.90
2022-11-16T04:03:25.339Z,23.13
2022-11-16T04:06:10.613Z,20.15
2022-11-16T04:08:55.428Z,20.60
2022-11-16T04:11:41.551Z,22.38
2022-11-16T04:14:32.593Z,20.45
2022-11-16T04:17:17.915Z,19.25
2022-11-16T04:22:53.120Z,19.93
2022-11-16T04:25:24.555Z,19.40
2022-11-16T04:28:11.051Z,23.98
2022-11-16T04:30:56.441Z,21.50
2022-11-16T04:33:41.698Z,19.98
2022-11-16T04:38:53.693Z,19.55
2022-11-16T04:41:38.804Z,21.45
2022-11-16T04:44:05.485Z,21.83
2022-11-16T04:46:50.443Z,19.75
2022-11-16T04:49:17.030Z,21.77
2022-11-16T04:51:43.567Z,17.60
2022-11-16T04:54:10.073Z,16.23
2022-11-16T04:56:36.650Z,17.55
2022-11-16T04:59:03.405Z,17.95
2022-11-16T05:01:48.337Z,22.15
2022-11-16T05:04:14.897Z,19.60
2022-11-16T05:06:41.449Z,20.50
2022-11-16T05:09:08.132Z,20.05
2022-11-16T05:11:34.712Z,18.77
2022-11-16T05:14:02.472Z,17.90
2022-11-16T05:16:29.848Z,18.63
2022-11-16T05:19:14.657Z,16.52
2022-11-16T05:21:41.168Z,16.15
2022-11-16T05:24:26.324Z,19.55
2022-11-16T05:26:52.883Z,16.05
2022-11-16T05:29:19.387Z,17.45
2022-11-16T05:31:45.926Z,15.95
2022-11-16T05:34:12.983Z,15.65
2022-11-16T05:36:39.567Z,16.13
2022-11-16T05:39:06.878Z,17.35
2022-11-16T05:41:33.608Z,15.32
2022-11-16T05:44:00.114Z,15.23
2022-11-16T05:46:26.596Z,17.00
2022-11-16T05:48:53.166Z,17.42
2022-11-16T05:51:19.963Z,18.75
2022-11-16T05:53:46.596Z,21.25
2022-11-16T05:56:15.117Z,22.48
2022-11-16T05:58:42.413Z,19.92
2022-11-16T06:01:08.983Z,15.48
2022-11-16T06:03:36.454Z,15.73
2022-11-16T06:06:05.164Z,13.32
2022-11-16T06:08:32.275Z,12.93
2022-11-16T06:11:04.343Z,12.35
2022-11-16T06:13:31.645Z,12.20
2022-11-16T06:15:58.858Z,15.20
2022-11-16T06:18:25.533Z,16.40
2022-11-16T06:20:52.337Z,17.10
2022-11-16T06:23:19.160Z,16.48
2022-11-16T06:25:46.094Z,18.10
2022-11-16T06:28:13.192Z,19.52
2022-11-16T06:30:40.682Z,17.75
2022-11-16T06:33:08.095Z,17.38
2022-11-16T06:35:34.680Z,16.35
2022-11-16T06:38:01.239Z,16.73
2022-11-16T06:40:27.748Z,18.15
2022-11-16T06:42:54.327Z,16.33
2022-11-16T06:45:20.853Z,15.73
2022-11-16T06:47:47.440Z,15.85
2022-11-16T06:50:14.039Z,16.33
2022-11-16T06:52:40.564Z,15.77
2022-11-16T06:55:07.418Z,17.58
2022-11-16T06:57:35.643Z,16.98
2022-11-16T07:00:02.472Z,15.02
2022-11-16T07:02:28.979Z,15.77
2022-11-16T07:05:00.603Z,21.65
2022-11-16T07:07:29.884Z,16.73
2022-11-16T07:09:56.449Z,20.02
2022-11-16T07:12:23.039Z,20.13
2022-11-16T07:14:49.622Z,18.50
2022-11-16T07:17:16.179Z,18.60
2022-11-16T07:19:42.719Z,16.67
2022-11-16T07:22:09.230Z,19.92
2022-11-16T07:24:35.793Z,18.65
2022-11-16T07:27:02.320Z,18.30
2022-11-16T07:29:29.331Z,18.90
2022-11-16T07:31:55.906Z,17.60
2022-11-16T07:34:22.430Z,18.92
2022-11-16T07:36:48.967Z,17.65
2022-11-16T07:39:15.528Z,19.80
2022-11-16T07:41:45.287Z,17.90
2022-11-16T07:44:12.375Z,16.70
2022-11-16T07:46:47.774Z,21.27
2022-11-16T07:49:16.119Z,19.67
2022-11-16T07:51:43.177Z,19.98
2022-11-16T07:54:14.605Z,18.13
2022-11-16T07:56:41.978Z,18.95
2022-11-16T07:59:08.944Z,17.60
2022-11-16T08:01:35.902Z,18.55
2022-11-16T08:04:02.798Z,17.25
2022-11-16T08:06:31.435Z,20.17
2022-11-16T08:08:58.901Z,19.50
2022-11-16T08:11:25.712Z,19.80
2022-11-16T08:13:52.319Z,17.70
2022-11-16T08:16:21.511Z,20.60
2022-11-16T08:18:48.077Z,17.50
2022-11-16T08:21:16.389Z,16.52
2022-11-16T08:23:44.953Z,16.08
2022-11-16T08:26:16.638Z,15.00
2022-11-16T08:28:45.047Z,15.57
2022-11-16T08:31:14.546Z,16.08
2022-11-16T08:33:41.422Z,14.88
2022-11-16T08:36:13.978Z,16.02
2022-11-16T08:38:41.252Z,14.00
2022-11-16T08:41:07.816Z,13.30
2022-11-16T08:43:35.867Z,13.10
2022-11-16T08:46:03.182Z,12.38
2022-11-16T08:48:29.835Z,12.30
2022-11-16T08:51:17.009Z,11.57
2022-11-16T08:53:44.611Z,11.45
2022-11-16T08:56:15.382Z,11.55
2022-11-16T08:58:44.248Z,11.63
2022-11-16T09:01:16.419Z,11.98
2022-11-16T09:03:43.343Z,11.85
2022-11-16T09:06:11.193Z,11.73
2022-11-16T09:08:39.707Z,12.77
2022-11-16T09:11:12.557Z,10.75
2022-11-16T09:13:39.924Z,10.25
2022-11-16T09:16:06.671Z,11.27
2022-11-16T09:18:34.679Z,12.15
2022-11-16T09:21:01.612Z,12.10
2022-11-16T09:23:28.287Z,10.95
2022-11-16T09:25:55.319Z,12.27
2022-11-16T09:28:22.866Z,11.57
2022-11-16T09:30:51.079Z,12.52
2022-11-16T09:33:18.174Z,12.38
2022-11-16T09:35:45.107Z,13.10
2022-11-16T09:38:14.843Z,12.25
2022-11-16T09:40:47.552Z,13.18
2022-11-16T09:43:26.090Z,14.65
2022-11-16T09:46:03.327Z,12.95
2022-11-16T09:48:35.665Z,13.98
2022-11-16T09:51:08.260Z,14.30
2022-11-16T09:53:57.360Z,13.57
2022-11-16T09:56:25.996Z,13.40
2022-11-16T09:59:18.369Z,13.82
2022-11-16T10:01:52.578Z,16.25
2022-11-16T10:04:28.306Z,13.35
2022-11-16T10:07:02.961Z,15.95
2022-11-16T10:09:30.553Z,15.45
2022-11-16T10:12:09.325Z,18.08
2022-11-16T10:15:01.476Z,20.52
2022-11-16T10:17:43.027Z,18.30
2022-11-16T10:20:30.922Z,17.65
2022-11-16T10:23:27.644Z,18.50
2022-11-16T10:26:03.291Z,16.95
2022-11-16T10:29:05.755Z,16.60
2022-11-16T10:31:51.565Z,18.05
2022-11-16T10:34:38.696Z,16.80
2022-11-16T10:37:08.550Z,18.38
2022-11-16T10:39:40.347Z,19.00
2022-11-16T10:42:13.415Z,15.98
2022-11-16T10:45:03.684Z,16.55
2022-11-16T10:47:46.822Z,15.93
2022-11-16T10:50:35.002Z,17.48
2022-11-16T10:53:01.686Z,14.32
2022-11-16T10:55:29.115Z,14.75
2022-11-16T10:58:00.189Z,14.43
2022-11-16T11:00:52.880Z,15.73
2022-11-16T11:03:33.712Z,14.52
2022-11-16T11:06:00.519Z,17.85
2022-11-16T11:08:31.322Z,17.45
2022-11-16T11:11:25.189Z,19.83
2022-11-16T11:14:11.633Z,22.63
2022-11-16T11:16:38.667Z,18.42
2022-11-16T11:19:28.042Z,17.33
2022-11-16T11:22:01.048Z,17.77
2022-11-16T11:24:45.293Z,17.05
2022-11-16T11:27:12.416Z,17.27
2022-11-16T11:29:42.666Z,16.92
2022-11-16T11:32:23.521Z,15.05
2022-11-16T11:34:53.936Z,15.77
2022-11-16T11:37:29.291Z,15.13
2022-11-16T11:40:17.479Z,18.30
2022-11-16T11:43:05.173Z,16.00
2022-11-16T11:45:49.867Z,15.95
2022-11-16T11:48:36.646Z,16.58
2022-11-16T11:51:19.371Z,13.35
2022-11-16T11:53:58.957Z,14.23
2022-11-16T11:56:27.561Z,14.63
2022-11-16T11:58:54.730Z,14.93
2022-11-16T12:01:48.184Z,16.75
2022-11-16T12:04:28.319Z,14.52
2022-11-16T12:07:03.535Z,13.27
2022-11-16T12:09:44.870Z,15.38
2022-11-16T12:12:17.897Z,13.45
2022-11-16T12:15:07.969Z,19.40
2022-11-16T12:18:08.144Z,14.73
2022-11-16T12:20:52.898Z,15.65
2022-11-16T12:23:37.777Z,12.68
2022-11-16T12:26:23.618Z,14.82
2022-11-16T12:29:05.127Z,12.70
2022-11-16T12:31:37.736Z,14.20
2022-11-16T12:34:18.299Z,12.68
2022-11-16T12:37:00.679Z,14.57
2022-11-16T12:39:35.731Z,15.00
2022-11-16T12:42:29.685Z,15.38
2022-11-16T12:45:40.717Z,14.63
2022-11-16T12:48:31.745Z,14.55
2022-11-16T12:51:36.833Z,13.93
2022-11-16T12:54:21.760Z,15.20
2022-11-16T12:56:59.455Z,14.68
2022-11-16T12:59:57.491Z,13.43
2022-11-16T13:02:44.682Z,13.40
2022-11-16T13:05:20.248Z,14.82
2022-11-16T13:08:05.468Z,15.35
2022-11-16T13:13:35.028Z,14.98
2022-11-16T13:15:53.737Z,15.10
2022-11-16T13:18:22.974Z,14.90
2022-11-16T13:21:16.156Z,13.93
2022-11-16T13:24:24.358Z,13.75
2022-11-16T13:27:22.146Z,13.77
2022-11-16T13:29:53.781Z,12.95
2022-11-16T13:32:32.194Z,14.93
2022-11-16T13:35:00.627Z,13.07
2022-11-16T13:37:39.349Z,14.43
2022-11-16T13:40:05.816Z,13.02
2022-11-16T13:42:58.099Z,14.00
2022-11-16T13:45:52.029Z,13.85
2022-11-16T13:48:23.734Z,13.77
2022-11-16T13:50:54.621Z,14.27
2022-11-16T13:56:13.629Z,11.93
2022-11-16T13:58:47.022Z,13.63
2022-11-16T14:01:15.163Z,12.10
2022-11-16T14:03:43.509Z,11.57
2022-11-16T14:06:13.002Z,15.82
2022-11-16T14:08:39.506Z,14.25
2022-11-16T14:11:46.211Z,13.43
2022-11-16T14:14:33.665Z,13.48
2022-11-16T14:17:00.173Z,12.95
2022-11-16T14:19:52.280Z,14.60
2022-11-16T14:22:59.768Z,13.48
2022-11-16T14:25:33.228Z,12.20
2022-11-16T14:28:17.151Z,13.77
2022-11-16T14:30:52.843Z,13.30
2022-11-16T14:33:33.291Z,15.00
2022-11-16T14:36:03.520Z,16.05
2022-11-16T14:38:36.646Z,16.15
2022-11-16T14:41:06.380Z,15.63
2022-11-16T14:43:40.579Z,15.70
2022-11-16T14:46:21.967Z,18.17
2022-11-16T14:48:49.579Z,18.25
2022-11-16T14:51:24.663Z,15.43
2022-11-16T14:53:56.734Z,16.88
2022-11-16T14:56:23.344Z,14.93
2022-11-16T14:58:57.846Z,15.75
2022-11-16T15:01:35.731Z,14.68
2022-11-16T15:04:09.213Z,14.18
2022-11-16T15:06:42.135Z,14.93
2022-11-16T15:09:17.302Z,14.52
2022-11-16T15:12:07.066Z,14.63
2022-11-16T15:14:39.727Z,14.80
2022-11-16T15:17:09.075Z,14.63
2022-11-16T15:19:35.687Z,14.27
2022-11-16T15:22:04.392Z,15.95
2022-11-16T15:24:35.260Z,14.77
2022-11-16T15:27:40.761Z,14.38
2022-11-16T15:30:36.982Z,14.60
2022-11-16T15:33:15.167Z,13.60
2022-11-16T15:35:41.755Z,18.85
2022-11-16T15:38:24.261Z,14.90
2022-11-16T15:40:52.592Z,16.98
2022-11-16T15:43:21.513Z,15.90
2022-11-16T15:45:49.214Z,15.00
2022-11-16T15:48:26.571Z,14.48
2022-11-16T15:51:16.385Z,15.55
2022-11-16T15:53:44.265Z,14.90
2022-11-16T15:56:22.467Z,14.75
2022-11-16T15:58:49.475Z,14.52
2022-11-16T16:01:16.605Z,14.05
2022-11-16T16:03:58.725Z,14.88
2022-11-16T16:06:46.537Z,14.98
2022-11-16T16:09:38.751Z,14.75
2022-11-16T16:12:21.667Z,13.82
2022-11-16T16:14:50.294Z,14.43
2022-11-16T16:17:28.560Z,15.30
2022-11-16T16:20:00.994Z,15.13
2022-11-16T16:22:31.446Z,14.38
2022-11-16T16:24:58.378Z,13.95
2022-11-16T16:27:29.108Z,12.98
2022-11-16T16:29:57.875Z,12.95
2022-11-16T16:32:27.070Z,13.43
2022-11-16T16:34:55.724Z,12.02
2022-11-16T16:37:22.749Z,13.05
2022-11-16T16:39:49.307Z,13.85
2022-11-16T16:42:17.390Z,13.60
2022-11-16T16:44:45.404Z,14.77
2022-11-16T16:47:12.660Z,14.88
2022-11-16T16:49:39.446Z,15.85
2022-11-16T16:52:07.352Z,15.38
2022-11-16T16:54:33.975Z,13.15
2022-11-16T16:57:02.373Z,16.13
2022-11-16T16:59:32.063Z,15.30
2022-11-16T17:01:59.136Z,14.60
2022-11-16T17:04:25.748Z,12.93
2022-11-16T17:06:53.180Z,12.57
2022-11-16T17:09:20.237Z,15.07
2022-11-16T17:11:47.555Z,13.57
2022-11-16T17:14:14.131Z,16.05
2022-11-16T17:16:40.790Z,14.82
2022-11-16T17:19:07.334Z,13.55
2022-11-16T17:21:33.902Z,12.35
2022-11-16T17:24:00.410Z,15.98
2022-11-16T17:26:29.541Z,15.07
2022-11-16T17:28:57.341Z,15.73
2022-11-16T17:31:24.801Z,15.45
2022-11-16T17:33:51.894Z,16.15
2022-11-16T17:36:19.102Z,17.08
2022-11-16T17:38:45.682Z,16.60
2022-11-16T17:41:18.311Z,16.42
2022-11-16T17:43:46.247Z,16.80
2022-11-16T17:46:15.794Z,18.60
2022-11-16T17:48:44.460Z,16.98
2022-11-16T17:51:12.616Z,17.25
2022-11-16T17:53:39.939Z,19.38
2022-11-16T17:56:07.694Z,19.48
2022-11-16T17:58:34.606Z,17.00
2022-11-16T18:01:01.456Z,18.80
2022-11-16T18:03:30.588Z,18.10
2022-11-16T18:06:09.682Z,18.05
2022-11-16T18:08:36.898Z,15.95
2022-11-16T18:11:12.003Z,18.30
2022-11-16T18:13:38.987Z,20.50
2022-11-16T18:16:17.146Z,18.90
2022-11-16T18:18:45.728Z,17.70
2022-11-16T18:21:20.120Z,17.27
2022-11-16T18:23:47.899Z,16.10
2022-11-16T18:26:16.927Z,18.50
2022-11-16T18:28:51.007Z,18.08
2022-11-16T18:31:20.526Z,16.88
2022-11-16T18:33:49.106Z,17.42
2022-11-16T18:36:16.541Z,16.45
2022-11-16T18:38:43.111Z,17.20
2022-11-16T18:41:12.335Z,16.73
2022-11-16T18:44:00.409Z,17.95
2022-11-16T18:46:29.080Z,19.55
2022-11-16T18:48:56.117Z,18.52
2022-11-16T18:51:24.156Z,18.70
2022-11-16T18:53:50.940Z,18.65
2022-11-16T18:56:18.541Z,18.02
2022-11-16T18:58:53.471Z,16.42
2022-11-16T19:01:26.377Z,18.85
2022-11-16T19:03:53.863Z,19.30
2022-11-16T19:06:21.006Z,33.65
2022-11-16T19:08:55.709Z,27.45
2022-11-16T19:11:24.063Z,19.23
2022-11-16T19:13:55.923Z,19.00
2022-11-16T19:16:23.679Z,17.38
2022-11-16T19:18:50.582Z,19.10
2022-11-16T19:21:21.949Z,18.05
2022-11-16T19:23:53.288Z,20.35
2022-11-16T19:26:25.311Z,17.95
2022-11-16T19:28:53.480Z,17.20
2022-11-16T19:31:21.517Z,16.73
2022-11-16T19:34:05.078Z,19.13
2022-11-16T19:36:32.799Z,17.20
2022-11-16T19:38:59.443Z,18.17
2022-11-16T19:41:27.012Z,18.48
2022-11-16T19:43:59.624Z,16.98
2022-11-16T19:46:28.052Z,15.77
2022-11-16T19:48:55.637Z,18.02
2022-11-16T19:51:28.359Z,17.73
2022-11-16T19:53:55.952Z,18.65
2022-11-16T19:56:23.958Z,18.02
2022-11-16T19:58:50.989Z,18.48
2022-11-16T20:01:27.652Z,16.38
2022-11-16T20:03:56.701Z,17.58
2022-11-16T20:06:26.547Z,17.20
2022-11-16T20:08:59.038Z,15.68
2022-11-16T20:11:28.198Z,15.95
2022-11-16T20:13:56.189Z,16.88
2022-11-16T20:16:28.076Z,15.65
2022-11-16T20:18:55.260Z,16.38
2022-11-16T20:21:25.920Z,16.15
2022-11-16T20:23:53.429Z,16.23
2022-11-16T20:26:21.442Z,16.88
2022-11-16T20:28:51.079Z,16.58
2022-11-16T20:31:20.436Z,15.55
2022-11-16T20:33:53.966Z,13.65
2022-11-16T20:36:22.931Z,15.13
2022-11-16T20:38:50.326Z,15.48
2022-11-16T20:41:21.941Z,14.05
2022-11-16T20:43:51.554Z,15.43
2022-11-16T20:46:19.090Z,16.35
2022-11-16T20:48:46.159Z,13.20
2022-11-16T20:51:15.237Z,14.10
2022-11-16T20:53:41.826Z,13.65
2022-11-16T20:56:10.828Z,15.40
2022-11-16T20:58:38.257Z,13.93
2022-11-16T21:01:07.994Z,18.23
2022-11-16T21:03:35.065Z,14.63
2022-11-16T21:06:01.949Z,14.88
2022-11-16T21:08:29.848Z,15.73
2022-11-16T21:10:56.767Z,15.70
2022-11-16T21:13:42.512Z,13.23
2022-11-16T21:16:13.711Z,15.30
2022-11-16T21:18:40.583Z,14.02
2022-11-16T21:21:11.110Z,15.63
2022-11-16T21:23:39.621Z,17.63
2022-11-16T21:26:15.337Z,16.45
2022-11-16T21:28:44.713Z,16.10
2022-11-16T21:31:16.681Z,15.32
2022-11-16T21:33:50.215Z,15.32
2022-11-16T21:36:19.077Z,15.88
2022-11-16T21:38:46.121Z,15.45
2022-11-16T21:41:14.507Z,16.20
2022-11-16T21:43:41.539Z,16.63
2022-11-16T21:46:11.695Z,16.02
2022-11-16T21:48:39.057Z,16.05
2022-11-16T21:51:11.284Z,18.83
2022-11-16T21:53:38.489Z,20.88
2022-11-16T21:56:06.568Z,18.58
2022-11-16T21:58:33.183Z,17.30
2022-11-16T22:01:02.189Z,17.50
2022-11-16T22:03:31.034Z,17.77
2022-11-16T22:06:18.591Z,16.83
2022-11-16T22:08:46.080Z,19.38
2022-11-16T22:11:13.703Z,17.58
2022-11-16T22:13:40.872Z,15.88
2022-11-16T22:16:09.544Z,16.45
2022-11-16T22:18:36.649Z,17.65
2022-11-16T22:21:03.713Z,16.98
2022-11-16T22:23:30.768Z,16.63
2022-11-16T22:26:08.461Z,18.23
2022-11-16T22:28:35.296Z,17.40
2022-11-16T22:31:04.247Z,17.83
2022-11-16T22:33:31.809Z,18.10
2022-11-16T22:35:59.024Z,16.40
2022-11-16T22:38:26.293Z,16.88
2022-11-16T22:40:54.943Z,18.23
2022-11-16T22:43:24.593Z,16.88
2022-11-16T22:45:51.413Z,18.55
2022-11-16T22:48:18.208Z,17.77
2022-11-16T22:50:44.730Z,18.33
2022-11-16T22:53:11.353Z,16.98
2022-11-16T22:55:38.852Z,15.43
2022-11-16T22:58:05.926Z,17.85
2022-11-16T23:00:38.937Z,15.95
2022-11-16T23:03:05.658Z,18.45
2022-11-16T23:05:32.202Z,19.10
2022-11-16T23:07:58.745Z,16.63
2022-11-16T23:10:25.249Z,16.63
2022-11-16T23:13:10.159Z,17.05
2022-11-16T23:15:51.595Z,16.10
2022-11-16T23:18:19.681Z,15.80
2022-11-16T23:21:12.660Z,15.93
2022-11-16T23:23:57.510Z,18.35
2022-11-16T23:26:44.642Z,15.93
2022-11-16T23:29:11.707Z,15.30
2022-11-16T23:31:38.542Z,16.63
2022-11-16T23:34:05.382Z,15.70
2022-11-16T23:36:31.963Z,16.33
2022-11-16T23:38:58.520Z,15.57
2022-11-16T23:41:43.747Z,18.77
2022-11-16T23:44:10.362Z,15.95
2022-11-16T23:46:36.944Z,16.90
2022-11-16T23:49:03.474Z,19.08
2022-11-16T23:51:29.991Z,18.75
2022-11-16T23:53:56.665Z,18.42
2022-11-16T23:56:23.587Z,16.98
2022-11-16T23:58:50.263Z,17.65
